Amity, AR

1:51 PM CDT on July 29, 2014 (GMT -0500)
Mount Moriah Road (KARBONNE2) Elev 659 ft | 34.38 °N, 93.35 °W | Change Station

Current weather conditions updated 3 seconds ago

Scattered Clouds
Scattered Clouds
88.9 °F
Feels Like 90 °F
N
0.0
Wind Variable Wind from NE
Gusts 4.5 mph

Today is forecast to be Cooler than yesterday.

Today
High -- | Low -- °F
--% Chance of Precip.
Yesterday
High -- | Low -- °F
Precip. -- in
6:22 AM 8:17 PM
Waxing Crescent, 7% visible
Pressure 30.11 in
Visibility 10.0 miles
Clouds Scattered Clouds 4100 ft
Heat Index 90 °F
Dew Point 64 °F
Humidity 43%
Rainfall 0.00 in
Snow Depth Not available.
UV 9 out of 12
Pollen 4.70 out of 12
Air Quality Not available.
Flu Activity Not available.
METAR KMWT 291753Z AUTO VRB04KT 10SM SCT041 27/17 A3014 RMK AO2 SLP195 T02720172 10272 20167 58006

More Conditions Fewer Conditions

Pressure 30.11 in
Visibility 10.0 miles
Clouds Scattered Clouds 4100 ft
Heat Index 90 °F
Dew Point 64 °F
Humidity 43%
Rainfall 0.00 in
Snow Depth Not available.
UV 9 out of 12
Pollen 4.70 out of 12
Air Quality Not available.
Flu Activity Not available.
METAR KMWT 291753Z AUTO VRB04KT 10SM SCT041 27/17 A3014 RMK AO2 SLP195 T02720172 10272 20167 58006

More Conditions Fewer Conditions

10-Day Weather Forecast

Almanac

Astronomy

Jul. 29, 2014 Rise Set
Actual Time 6:22 AM CDT 8:17 PM CDT
Civil Twilight 5:54 AM CDT 8:45 PM CDT
Nautical Twilight 5:21 AM CDT 9:18 PM CDT
Astronomical Twilight 4:45 AM CDT 9:54 PM CDT
Moon 8:50 AM CDT 9:40 PM CDT
Length of Visible Light 14h 50m
Length of Day
13h 54m
Tomorrow will be 1m 32s shorter.
Waxing Crescent, 7% of the Moon is Illuminated
Today
Waxing Crescent
Aug 3
First Quarter
Aug 10
Full
Aug 17
Last Quarter
Aug 25
New

Today's Extremes

State Highs State Lows

Community

WunderPhotos

Upload Photos

1,738,825 photos uploaded!

WunderBlogs® & News

By Dr. Jeff Masters
Director of Meteorology, Weather Underground
By Kari Strenfel
Meteorologist, Weather Underground
By Christopher C. Burt
Weather Historian, Weather Underground
July 29, 2014
July 29, 2014
July 29, 2014

Nearby

Snow Depth

Station Depth Elevation
No new snow has been reported.

Earthquake Activity

City Distance Mag. Time & Date
No recent earthquake activity has been reported nearby.
Minimum magnitude displayed is 2.5.

Coastal Water Temperatures

Place Temperature
No Stations Reporting

Nearby Weather Stations

Station Location Temp. Heat Index Dew Point Humidity Wind Precip. Elev Updated Type
Mount Moriah Road, Bonnerdale, AR 88.9 °F 90 °F 64 °F 43% NE  at  0.0 mph 0.00 in / hr 659 ft 1:51 PM CDT Rapid Fire
Pearcy, AR, Pearcy, AR 85.6 °F 90 °F 70 °F 59% NW  at  1.6 mph 0.00 in / hr 545 ft 1:48 PM CDT Normal
Paradise South Golf Course, Norman, AR 87.8 °F 87 °F 58 °F 36% SSW  at  1.6 mph 0.00 in / hr 700 ft 1:51 PM CDT Rapid Fire

Show More Stations Show Fewer Stations